Time;durP1;ratioP1;P1;durP2;ratioP2;P2;SDS_P1;SDS_P2;PMS_P1;PMS_P2;Temp;Humidity;BMP_temperature;BMP_pressure;BME280_temperature;BME280_humidity;BME280_pressure;Samples;Min_cycle;Max_cycle;Signal;HPM_P1;HPM_P2
2022/09/13 00:00:52;;;;;;;3.25;0.93;;;14.80;99.90;;;;;;4974507;28;20371;-75
2022/09/13 00:03:21;;;;;;;4.25;1.30;;;;;;;;;;4974097;28;20070;-75
2022/09/13 00:05:48;;;;;;;5.53;1.00;;;;;;;;;;4974052;28;20019;-74
2022/09/13 00:08:15;;;;;;;3.03;0.82;;;;;;;;;;4974102;28;20035;-75
2022/09/13 00:10:43;;;;;;;4.75;1.15;;;;;;;;;;4974369;28;20019;-74
2022/09/13 00:13:11;;;;;;;4.80;0.95;;;;;;;;;;4974020;28;20055;-75
2022/09/13 00:15:48;;;;;;;3.78;0.90;;;14.80;99.90;;;;;;4974063;28;20050;-74
2022/09/13 00:18:15;;;;;;;1.95;0.73;;;;;;;;;;4974050;28;20018;-75
2022/09/13 00:20:42;;;;;;;5.32;1.10;;;14.90;99.90;;;;;;4974196;28;20483;-74
2022/09/13 00:23:10;;;;;;;4.28;1.00;;;;;;;;;;4973980;28;20105;-75
2022/09/13 00:25:37;;;;;;;2.53;0.80;;;15.30;99.90;;;;;;4978065;28;20026;-75
2022/09/13 00:28:05;;;;;;;5.20;0.82;;;;;;;;;;4977704;28;20018;-75
2022/09/13 00:30:33;;;;;;;3.92;1.20;;;;;;;;;;4977635;28;20372;-75
2022/09/13 00:33:03;;;;;;;5.25;0.90;;;;;;;;;;4978060;28;20259;-75
2022/09/13 00:35:30;;;;;;;3.70;0.98;;;;;;;;;;4977681;28;20029;-76
2022/09/13 00:37:59;;;;;;;2.55;1.10;;;;;;;;;;4977616;28;20049;-75
2022/09/13 00:40:29;;;;;;;2.78;0.98;;;;;;;;;;4977750;28;20146;-75
2022/09/13 00:42:56;;;;;;;2.60;0.65;;;;;;;;;;4976517;28;20023;-75
2022/09/13 00:45:23;;;;;;;3.03;0.98;;;;;;;;;;4976297;28;20041;-75
2022/09/13 00:47:55;;;;;;;4.05;1.08;;;;;;;;;;4977529;28;20037;-75
2022/09/13 00:50:25;;;;;;;4.50;0.98;;;;;;;;;;4976184;28;20027;-75
2022/09/13 00:52:55;;;;;;;3.28;1.00;;;;;;;;;;4977484;28;20098;-75
2022/09/13 00:55:27;;;;;;;3.97;0.95;;;;;;;;;;4977276;28;20475;-75
2022/09/13 00:57:56;;;;;;;4.03;1.20;;;;;;;;;;4977416;28;20023;-74
2022/09/13 01:00:23;;;;;;;4.75;1.58;;;;;;;;;;4977261;28;20019;-75
2022/09/13 01:02:54;;;;;;;7.93;2.08;;;;;;;;;;4977263;28;20034;-75
2022/09/13 01:05:24;;;;;;;4.25;1.38;;;16.60;99.90;;;;;;4975906;28;20034;-74
2022/09/13 01:07:52;;;;;;;8.27;2.00;;;16.70;99.90;;;;;;4977089;28;20380;-74
2022/09/13 01:10:22;;;;;;;4.90;1.42;;;;;;;;;;4977030;28;20023;-74
2022/09/13 01:12:52;;;;;;;6.82;1.58;;;17.20;99.90;;;;;;4977008;28;20022;-74
2022/09/13 01:15:20;;;;;;;4.78;1.77;;;17.20;99.90;;;;;;4975630;28;20034;-75
2022/09/13 01:17:48;;;;;;;6.03;1.60;;;;;;;;;;4976944;28;20019;-74
2022/09/13 01:20:15;;;;;;;5.25;1.30;;;17.20;99.90;;;;;;4975845;28;20479;-74
2022/09/13 01:22:55;;;;;;;6.05;1.38;;;17.20;99.90;;;;;;4975549;28;20029;-74
2022/09/13 01:25:41;;;;;;;4.35;1.60;;;17.20;99.90;;;;;;4975555;28;20484;-74
2022/09/13 01:28:18;;;;;;;4.47;1.48;;;;;;;;;;4976670;28;20019;-74
2022/09/13 01:31:05;;;;;;;4.68;1.15;;;;;;;;;;4976596;28;20019;-74
2022/09/13 01:33:35;;;;;;;3.35;0.90;;;17.60;99.90;;;;;;4976628;28;20027;-75
2022/09/13 01:36:23;;;;;;;2.97;0.82;;;17.70;99.90;;;;;;4976351;28;20023;-75
2022/09/13 01:39:14;;;;;;;2.78;1.00;;;18.00;99.90;;;;;;4976903;28;20035;-75
2022/09/13 01:41:44;;;;;;;2.92;1.00;;;17.60;99.90;;;;;;4976588;28;20023;-74
2022/09/13 01:44:31;;;;;;;4.47;1.10;;;17.20;99.90;;;;;;4975608;28;20031;-75
2022/09/13 01:47:07;;;;;;;5.00;1.38;;;17.30;99.90;;;;;;4976729;28;20026;-74
2022/09/13 01:49:43;;;;;;;4.38;1.40;;;17.00;99.90;;;;;;4976457;28;20109;-73
2022/09/13 01:52:45;;;;;;;6.60;1.58;;;16.90;99.90;;;;;;4975135;28;20513;-74
2022/09/13 01:55:31;;;;;;;5.07;1.52;;;16.80;99.90;;;;;;4965134;28;20038;-74
2022/09/13 01:58:08;;;;;;;6.00;1.50;;;16.80;99.90;;;;;;4976343;28;20154;-74
2022/09/13 02:00:46;;;;;;;4.57;1.50;;;17.00;99.90;;;;;;4976399;28;20027;-74
2022/09/13 02:03:30;;;;;;;3.25;1.38;;;17.40;99.90;;;;;;4976202;28;20026;-74
2022/09/13 02:06:06;;;;;;;8.25;2.10;;;17.60;99.90;;;;;;4974879;28;20030;-74
2022/09/13 02:08:50;;;;;;;5.68;1.10;;;17.70;99.90;;;;;;4976022;28;20026;-74
2022/09/13 02:11:22;;;;;;;7.57;1.77;;;17.30;99.90;;;;;;4974730;28;20054;-75
2022/09/13 02:14:12;;;;;;;3.75;1.40;;;17.60;99.90;;;;;;4976023;28;20027;-74
2022/09/13 02:16:51;;;;;;;5.75;1.50;;;17.70;99.90;;;;;;4975909;28;20482;-75
2022/09/13 02:19:37;;;;;;;6.13;1.58;;;18.10;99.90;;;;;;4974654;28;20035;-74
2022/09/13 02:22:08;;;;;;;6.38;1.75;;;18.20;99.90;;;;;;4975758;28;20046;-76
2022/09/13 02:24:51;;;;;;;4.10;1.10;;;18.60;99.90;;;;;;4975936;28;20027;-75
2022/09/13 02:27:25;;;;;;;5.43;1.90;;;18.10;99.90;;;;;;4975667;28;20042;-74
2022/09/13 02:29:56;;;;;;;5.72;1.52;;;17.90;99.90;;;;;;4976157;28;20065;-75
2022/09/13 02:33:07;;;;;;;4.15;1.13;;;17.70;99.90;;;;;;4974130;28;20046;-74
2022/09/13 02:35:43;;;;;;;7.78;2.13;;;17.90;99.90;;;;;;4975475;28;20475;-74
2022/09/13 02:38:46;;;;;;;4.72;1.55;;;18.00;99.90;;;;;;4974237;28;20066;-74
2022/09/13 02:41:36;;;;;;;4.18;1.25;;;18.00;99.90;;;;;;4975507;28;20085;-74
2022/09/13 02:44:12;;;;;;;4.95;1.52;;;17.90;99.90;;;;;;4974158;28;20038;-73
2022/09/13 02:47:10;;;;;;;4.40;1.23;;;18.00;99.90;;;;;;4973561;28;20026;-74
2022/09/13 02:49:59;;;;;;;4.63;1.73;;;17.90;99.90;;;;;;4973865;28;20031;-74
2022/09/13 02:52:38;;;;;;;5.07;1.90;;;18.20;99.90;;;;;;4975456;28;20019;-75
2022/09/13 02:56:01;;;;;;;5.97;1.75;;;17.80;99.90;;;;;;4975531;28;20022;-74
2022/09/13 02:58:44;;;;;;;7.32;1.20;;;17.60;99.90;;;;;;4937526;29;20031;-74
2022/09/13 03:01:12;;;;;;;3.00;1.27;;;17.70;99.90;;;;;;4954243;29;20062;-74
2022/09/13 03:03:39;;;;;;;5.25;1.58;;;17.90;99.90;;;;;;4969021;28;20039;-74
2022/09/13 03:06:07;;;;;;;4.78;1.27;;;17.80;99.90;;;;;;4974991;28;20439;-75
2022/09/13 03:08:35;;;;;;;4.45;1.17;;;18.20;99.90;;;;;;4973485;28;20026;-74
2022/09/13 03:11:43;;;;;;;3.70;1.17;;;17.70;99.90;;;;;;4975157;28;20026;-74
2022/09/13 03:14:20;;;;;;;2.60;1.10;;;17.40;99.90;;;;;;4975095;28;20387;-75
2022/09/13 03:17:08;;;;;;;4.18;1.00;;;17.40;99.90;;;;;;4975134;28;20086;-75
2022/09/13 03:20:05;;;;;;;3.83;1.10;;;17.30;99.90;;;;;;4975230;28;20077;-74
2022/09/13 03:22:41;;;;;;;5.20;1.23;;;17.30;99.90;;;;;;4973413;28;20031;-74
2022/09/13 03:25:53;;;;;;;7.55;1.10;;;17.20;99.90;;;;;;4975244;28;20027;-75
2022/09/13 03:28:26;;;;;;;5.07;1.48;;;17.20;99.90;;;;;;4937096;29;20117;-74
2022/09/13 03:31:03;;;;;;;4.70;1.40;;;17.40;99.90;;;;;;4952975;29;20066;-74
2022/09/13 03:33:40;;;;;;;4.72;1.20;;;17.20;99.90;;;;;;4965905;28;20395;-75
2022/09/13 03:36:36;;;;;;;8.68;1.55;;;16.80;99.90;;;;;;4974558;28;20027;-74
2022/09/13 03:39:41;;;;;;;3.40;1.10;;;17.00;99.90;;;;;;4974578;28;20038;-73
2022/09/13 03:42:36;;;;;;;4.82;1.10;;;17.00;99.90;;;;;;4974670;28;20027;-74
2022/09/13 03:45:07;;;;;;;5.70;1.38;;;17.20;99.90;;;;;;4974673;28;20027;-75
2022/09/13 03:47:39;;;;;;;4.15;1.00;;;17.00;99.90;;;;;;4974610;28;20026;-74
2022/09/13 03:50:09;;;;;;;4.93;1.20;;;17.10;99.90;;;;;;4973055;28;20529;-75
2022/09/13 03:52:37;;;;;;;5.55;1.15;;;17.20;99.90;;;;;;4973147;28;20501;-75
2022/09/13 03:55:04;;;;;;;3.42;0.90;;;17.30;99.90;;;;;;4974360;28;20023;-75
2022/09/13 03:57:32;;;;;;;5.07;0.90;;;17.40;99.90;;;;;;4973071;28;20055;-75
2022/09/13 03:59:59;;;;;;;4.07;1.05;;;17.50;99.90;;;;;;4973821;28;20031;-74
2022/09/13 04:02:27;;;;;;;3.58;0.90;;;17.70;99.90;;;;;;4972864;28;20027;-75
2022/09/13 04:04:55;;;;;;;8.10;1.15;;;17.60;99.90;;;;;;4974092;28;20035;-75
2022/09/13 04:07:24;;;;;;;5.13;1.23;;;17.80;99.90;;;;;;4974133;28;20102;-75
2022/09/13 04:09:51;;;;;;;4.35;1.08;;;17.60;99.90;;;;;;4972571;28;20038;-74
2022/09/13 04:12:19;;;;;;;4.85;1.00;;;17.50;99.90;;;;;;4974148;28;20055;-74
2022/09/13 04:14:47;;;;;;;4.72;1.30;;;17.30;99.90;;;;;;4974045;28;20025;-75
2022/09/13 04:17:14;;;;;;;3.33;1.17;;;16.90;99.90;;;;;;4974001;28;20019;-75
2022/09/13 04:19:44;;;;;;;6.93;1.20;;;16.90;99.90;;;;;;4972907;28;20501;-74
2022/09/13 04:22:12;;;;;;;4.07;0.88;;;16.70;99.90;;;;;;4972710;28;20027;-75
2022/09/13 04:24:39;;;;;;;6.13;1.30;;;16.80;99.90;;;;;;4973799;28;20027;-75
2022/09/13 04:27:07;;;;;;;4.90;1.20;;;16.60;99.90;;;;;;4974239;28;20022;-76
2022/09/13 04:29:34;;;;;;;4.93;0.93;;;16.60;99.90;;;;;;4973707;28;20031;-75
2022/09/13 04:32:02;;;;;;;4.30;1.00;;;16.80;99.90;;;;;;4973635;28;20097;-75
2022/09/13 04:34:29;;;;;;;6.70;1.50;;;16.80;99.90;;;;;;4972545;28;20019;-74
2022/09/13 04:36:56;;;;;;;5.03;1.20;;;16.70;99.90;;;;;;4973808;28;20387;-75
2022/09/13 04:39:23;;;;;;;5.28;1.42;;;16.60;99.90;;;;;;4973995;28;20027;-74
2022/09/13 04:41:53;;;;;;;4.40;1.10;;;16.60;99.90;;;;;;4973728;28;20114;-75
2022/09/13 04:44:23;;;;;;;4.85;0.98;;;16.80;99.90;;;;;;4972363;28;20030;-74
2022/09/13 04:46:50;;;;;;;5.10;0.95;;;16.80;99.90;;;;;;4973857;28;20035;-74
2022/09/13 04:49:19;;;;;;;3.78;1.02;;;16.60;99.90;;;;;;4973558;28;20087;-74
2022/09/13 04:51:47;;;;;;;4.30;1.15;;;16.60;99.90;;;;;;4973637;28;20015;-74
2022/09/13 04:54:14;;;;;;;5.57;0.90;;;16.70;99.90;;;;;;4973745;28;20023;-74
2022/09/13 04:56:41;;;;;;;5.72;0.90;;;16.80;99.90;;;;;;4972318;28;20557;-75
2022/09/13 04:59:10;;;;;;;3.28;1.00;;;16.70;99.90;;;;;;4972413;28;20031;-75
2022/09/13 05:01:38;;;;;;;4.68;0.95;;;16.80;99.90;;;;;;4974019;28;20113;-74
2022/09/13 05:04:06;;;;;;;4.47;0.90;;;16.60;99.90;;;;;;4973685;28;20034;-75
2022/09/13 05:06:34;;;;;;;5.45;1.33;;;17.00;99.90;;;;;;4973537;28;20031;-75
2022/09/13 05:09:04;;;;;;;2.75;0.88;;;17.20;99.90;;;;;;4972253;28;20035;-75
2022/09/13 05:11:31;;;;;;;2.65;0.70;;;17.70;99.90;;;;;;4974708;28;20015;-74
2022/09/13 05:14:00;;;;;;;3.80;1.10;;;18.30;99.90;;;;;;4976002;28;20022;-75
2022/09/13 05:16:32;;;;;;;3.75;0.80;;;18.10;99.90;;;;;;4977225;28;20022;-75
2022/09/13 05:19:01;;;;;;;5.80;1.13;;;18.40;99.90;;;;;;4977039;28;20021;-74
2022/09/13 05:21:29;;;;;;;3.17;1.10;;;18.50;99.90;;;;;;4976808;28;20034;-74
2022/09/13 05:23:58;;;;;;;3.53;1.02;;;18.20;99.90;;;;;;4977355;28;20027;-75
2022/09/13 05:26:32;;;;;;;5.95;1.02;;;18.00;99.90;;;;;;4976998;28;20031;-74
2022/09/13 05:29:00;;;;;;;5.40;0.90;;;18.20;99.90;;;;;;4976756;28;20562;-74
2022/09/13 05:31:32;;;;;;;4.85;0.98;;;18.30;99.90;;;;;;4976199;28;20046;-74
2022/09/13 05:34:07;;;;;;;2.65;1.02;;;18.40;99.90;;;;;;4975397;28;20033;-74
2022/09/13 05:36:34;;;;;;;3.13;0.80;;;17.90;99.90;;;;;;4976733;28;20021;-74
2022/09/13 05:39:02;;;;;;;4.65;1.10;;;17.40;99.90;;;;;;4976704;28;20106;-74
2022/09/13 05:41:30;;;;;;;5.63;1.00;;;17.70;99.90;;;;;;4976954;28;20081;-75
2022/09/13 05:43:58;;;;;;;3.45;0.80;;;17.80;99.90;;;;;;4975364;28;20030;-76
2022/09/13 05:46:25;;;;;;;4.55;1.15;;;17.60;99.90;;;;;;4976544;28;20027;-75
2022/09/13 05:48:57;;;;;;;3.38;0.75;;;17.70;99.90;;;;;;4975124;28;20031;-75
2022/09/13 05:51:24;;;;;;;2.70;1.02;;;17.80;99.90;;;;;;4975251;28;20023;-75
2022/09/13 05:53:53;;;;;;;6.07;1.08;;;17.30;99.90;;;;;;4976644;28;20114;-75
2022/09/13 05:56:23;;;;;;;4.85;1.65;;;17.50;99.90;;;;;;4975012;28;20030;-76
2022/09/13 05:58:52;;;;;;;4.68;1.30;;;17.50;99.90;;;;;;4976426;28;20030;-76
2022/09/13 06:01:25;;;;;;;3.63;1.02;;;17.70;99.90;;;;;;4976228;28;20129;-74
2022/09/13 06:03:55;;;;;;;3.72;0.80;;;17.60;99.90;;;;;;4976070;28;20030;-74
2022/09/13 06:06:23;;;;;;;4.07;1.00;;;17.70;99.90;;;;;;4976400;28;20379;-75
2022/09/13 06:08:55;;;;;;;3.53;0.82;;;17.50;99.90;;;;;;4974647;28;20038;-75
2022/09/13 06:11:25;;;;;;;4.03;1.15;;;17.70;99.90;;;;;;4976155;28;20070;-74
2022/09/13 06:13:52;;;;;;;3.70;0.82;;;17.80;99.90;;;;;;4976039;28;20022;-76
2022/09/13 06:16:20;;;;;;;4.35;0.82;;;17.50;99.90;;;;;;4973014;28;20540;-76
2022/09/13 06:18:48;;;;;;;4.63;0.98;;;17.40;99.90;;;;;;4958525;28;20038;-78
2022/09/13 06:21:18;;;;;;;3.47;0.70;;;17.30;99.90;;;;;;4974763;28;20031;-77
2022/09/13 06:23:47;;;;;;;4.10;1.00;;;17.00;99.90;;;;;;4975894;28;20391;-79
2022/09/13 06:26:16;;;;;;;6.18;0.82;;;16.80;99.90;;;;;;4974831;28;20042;-78
2022/09/13 06:28:48;;;;;;;6.03;1.20;;;16.70;99.90;;;;;;4974553;28;20387;-80
2022/09/13 06:31:17;;;;;;;3.05;0.80;;;16.40;99.90;;;;;;4974196;28;20134;-80
2022/09/13 06:33:45;;;;;;;3.47;0.82;;;16.80;99.90;;;;;;4974529;28;20114;-79
2022/09/13 06:36:16;;;;;;;5.40;1.23;;;16.80;99.90;;;;;;4974505;28;20037;-80
2022/09/13 06:38:48;;;;;;;3.28;1.13;;;16.80;99.90;;;;;;4974370;28;20130;-80
2022/09/13 06:41:22;;;;;;;3.47;0.93;;;16.70;99.90;;;;;;4973410;28;20034;-80
2022/09/13 06:44:00;;;;;;;4.18;0.77;;;16.60;99.90;;;;;;4975599;28;20444;-79
2022/09/13 06:46:30;;;;;;;3.72;1.00;;;16.60;99.90;;;;;;4975929;28;20109;-79
2022/09/13 06:49:04;;;;;;;3.40;0.70;;;16.70;99.90;;;;;;4974364;28;20026;-81
2022/09/13 06:51:33;;;;;;;6.10;0.80;;;16.50;99.90;;;;;;4974290;28;20023;-81
2022/09/13 06:54:02;;;;;;;4.80;1.05;;;16.50;99.90;;;;;;4977582;28;20364;-81
2022/09/13 06:56:32;;;;;;;4.50;1.42;;;16.20;99.90;;;;;;4974730;28;20022;-82
2022/09/13 06:59:03;;;;;;;5.05;0.88;;;16.10;99.90;;;;;;4974797;28;20029;-83
2022/09/13 07:01:34;;;;;;;2.92;0.70;;;15.90;99.90;;;;;;4975514;28;20034;-80
2022/09/13 07:04:04;;;;;;;5.45;1.08;;;15.90;99.90;;;;;;4975583;28;20026;-80
2022/09/13 07:06:34;;;;;;;3.63;0.90;;;15.80;99.90;;;;;;4975202;28;20022;-81
2022/09/13 07:09:03;;;;;;;4.20;1.00;;;15.70;99.90;;;;;;4973925;28;20062;-80
2022/09/13 07:11:37;;;;;;;6.13;1.10;;;15.60;99.90;;;;;;4975340;28;20031;-80
2022/09/13 07:14:05;;;;;;;3.30;1.00;;;15.50;99.90;;;;;;4975306;28;20019;-73
2022/09/13 07:16:37;;;;;;;4.72;0.95;;;15.40;99.90;;;;;;4973418;28;20027;-74
2022/09/13 07:19:07;;;;;;;8.25;2.15;;;15.20;99.90;;;;;;4971864;28;20054;-74
2022/09/13 07:21:35;;;;;;;8.75;2.28;;;15.10;99.90;;;;;;4973118;28;20413;-74
2022/09/13 07:24:03;;;;;;;5.88;1.02;;;15.00;99.90;;;;;;4972480;28;20482;-75
2022/09/13 07:26:30;;;;;;;5.03;1.00;;;14.90;99.90;;;;;;4973862;28;20110;-74
2022/09/13 07:29:01;;;;;;;5.88;1.20;;;14.80;99.90;;;;;;4973777;28;20077;-75
2022/09/13 07:31:36;;;;;;;4.50;0.95;;;14.70;99.90;;;;;;4974203;28;20069;-77
2022/09/13 07:34:11;;;;;;;34.00;10.40;;;14.60;99.90;;;;;;4974079;28;20050;-79
2022/09/13 07:36:39;;;;;;;5.88;1.05;;;14.60;99.90;;;;;;4975200;28;20081;-82
2022/09/13 07:39:07;;;;;;;11.00;3.38;;;14.60;99.90;;;;;;4976707;28;20026;-83
2022/09/13 07:41:34;;;;;;;99.55;41.90;;;14.50;99.90;;;;;;4973969;28;20086;-79
2022/09/13 07:44:03;;;;;;;155.00;88.45;;;14.50;99.90;;;;;;4974780;28;20089;-80
2022/09/13 07:46:32;;;;;;;37.40;17.33;;;14.60;99.90;;;;;;4974726;28;20479;-82
2022/09/13 07:49:00;;;;;;;9.48;1.85;;;14.50;99.90;;;;;;4973462;28;20031;-80
2022/09/13 07:51:30;;;;;;;45.75;25.90;;;14.40;99.90;;;;;;4974549;28;20030;-81
2022/09/13 07:54:00;;;;;;;117.53;64.22;;;14.40;99.90;;;;;;4974108;28;20485;-80
2022/09/13 07:56:31;;;;;;;76.13;39.97;;;14.40;99.90;;;;;;4973525;28;20029;-80
2022/09/13 07:59:01;;;;;;;59.95;33.15;;;14.40;99.90;;;;;;4973482;28;20039;-81
2022/09/13 08:01:34;;;;;;;233.88;134.73;;;14.40;99.90;;;;;;4972857;28;20460;-79
2022/09/13 08:04:03;;;;;;;19.20;8.93;;;14.40;99.90;;;;;;4974609;28;20364;-82
2022/09/13 08:06:33;;;;;;;7.35;3.33;;;14.40;99.90;;;;;;4974840;28;20081;-80
2022/09/13 08:09:00;;;;;;;26.58;13.38;;;14.30;99.90;;;;;;4973298;28;20123;-81
2022/09/13 08:11:31;;;;;;;5.75;2.08;;;14.20;99.90;;;;;;4973863;28;20369;-81
2022/09/13 08:14:00;;;;;;;8.65;2.22;;;14.20;99.90;;;;;;4974984;28;20372;-83
2022/09/13 08:16:29;;;;;;;14.15;4.70;;;14.20;99.90;;;;;;4974801;28;20019;-83
2022/09/13 08:19:00;;;;;;;18.85;7.10;;;14.20;99.90;;;;;;4974697;28;20514;-83
2022/09/13 08:21:36;;;;;;;12.15;3.05;;;14.20;99.90;;;;;;4973538;28;20030;-83
2022/09/13 08:24:13;;;;;;;8.23;3.78;;;14.10;99.90;;;;;;4975204;28;20042;-83
2022/09/13 08:26:40;;;;;;;12.70;5.00;;;14.10;99.90;;;;;;4972611;28;20182;-83
2022/09/13 08:29:08;;;;;;;11.52;5.15;;;14.00;99.90;;;;;;4972982;28;20030;-82
2022/09/13 08:31:35;;;;;;;10.27;4.00;;;14.00;99.90;;;;;;4973257;28;20491;-83
2022/09/13 08:34:03;;;;;;;11.80;5.65;;;14.00;99.90;;;;;;4972385;28;20117;-82
2022/09/13 08:36:30;;;;;;;10.85;5.18;;;14.00;99.90;;;;;;4973419;28;20849;-80
2022/09/13 08:39:00;;;;;;;5.70;1.33;;;13.90;99.90;;;;;;4974919;28;20369;-78
2022/09/13 08:41:44;;;;;;;21.80;10.75;;;13.90;99.90;;;;;;4972920;28;20031;-79
2022/09/13 08:44:25;;;;;;;24.67;12.13;;;13.90;99.90;;;;;;4974351;28;20034;-80
2022/09/13 08:46:57;;;;;;;9.60;4.57;;;13.90;99.90;;;;;;4977925;28;20031;-86
2022/09/13 08:49:40;;;;;;;5.75;1.35;;;13.90;99.90;;;;;;4977552;28;20051;-84
2022/09/13 08:52:29;;;;;;;12.52;4.30;;;13.80;99.90;;;;;;4978666;28;20527;-80
2022/09/13 08:54:59;;;;;;;8.55;2.10;;;13.80;99.90;;;;;;4976525;28;20022;-77
2022/09/13 08:57:46;;;;;;;8.68;2.63;;;13.70;99.90;;;;;;4976937;28;20023;-80
2022/09/13 09:00:31;;;;;;;5.35;1.60;;;13.70;99.90;;;;;;4978076;28;20031;-79
2022/09/13 09:03:06;;;;;;;4.85;1.23;;;13.60;99.90;;;;;;4977840;28;20427;-81
2022/09/13 09:05:47;;;;;;;5.82;1.27;;;13.60;99.90;;;;;;4976916;28;20027;-78
2022/09/13 09:08:34;;;;;;;;;;;13.60;99.90;;;;;;4977083;28;20131;-84
2022/09/13 09:11:24;;;;;;;3.53;1.10;;;13.60;99.90;;;;;;4970477;28;20285;-81
2022/09/13 09:14:04;;;;;;;6.35;1.60;;;13.50;99.90;;;;;;4978813;28;20033;-86
2022/09/13 09:16:52;;;;;;;6.05;1.50;;;13.50;99.90;;;;;;4977476;28;20031;-84
2022/09/13 09:19:33;;;;;;;6.75;1.23;;;13.50;99.90;;;;;;4977917;28;20066;-84
2022/09/13 09:22:03;;;;;;;3.83;1.70;;;13.50;99.90;;;;;;4978724;28;20027;-80
2022/09/13 09:24:35;;;;;;;8.23;1.60;;;13.40;99.90;;;;;;4978608;28;20034;-77
2022/09/13 09:27:10;;;;;;;5.43;1.27;;;13.40;99.90;;;;;;4976692;28;20146;-77
2022/09/13 09:29:42;;;;;;;6.28;1.80;;;13.30;99.90;;;;;;4977068;28;20054;-79
2022/09/13 09:32:57;;;;;;;4.88;1.45;;;13.40;99.90;;;;;;4974737;28;20077;-77
2022/09/13 09:35:45;;;;;;;3.45;1.30;;;13.30;99.90;;;;;;4971801;28;20507;-78
2022/09/13 09:38:42;;;;;;;6.50;1.55;;;13.20;99.90;;;;;;4975986;28;20018;-79
2022/09/13 09:41:34;;;;;;;6.88;2.00;;;13.20;99.90;;;;;;4975877;28;20019;-79
2022/09/13 09:44:25;;;;;;;4.38;1.10;;;13.10;99.90;;;;;;4975795;28;20030;-80
2022/09/13 09:46:59;;;;;;;5.30;1.83;;;13.20;99.90;;;;;;4977143;28;20033;-78
2022/09/13 09:52:49;;;;;;;6.50;1.48;;;13.20;99.90;;;;;;4977411;28;20034;-76
2022/09/13 09:55:50;;;;;;;6.93;1.90;;;13.20;99.90;;;;;;4977282;28;20054;-79
2022/09/13 09:58:35;;;;;;;8.50;3.50;;;13.20;99.90;;;;;;4976338;28;20090;-76
2022/09/13 10:01:04;;;;;;;8.38;4.15;;;13.20;99.90;;;;;;4975126;28;20483;-77
2022/09/13 10:03:33;;;;;;;4.53;2.38;;;13.10;99.90;;;;;;4975175;28;20134;-79
2022/09/13 10:06:13;;;;;;;7.05;2.60;;;13.10;99.90;;;;;;4976256;28;20026;-77
2022/09/13 10:08:43;;;;;;;5.78;2.75;;;13.10;99.90;;;;;;4976078;28;20043;-79
2022/09/13 10:11:11;;;;;;;7.00;1.92;;;13.10;99.90;;;;;;4974844;28;20069;-79
2022/09/13 10:13:58;;;;;;;4.00;1.52;;;13.20;99.90;;;;;;4975959;28;20122;-77
2022/09/13 10:16:28;;;;;;;7.15;3.72;;;13.10;99.90;;;;;;4974998;28;20062;-77
2022/09/13 10:19:25;;;;;;;7.10;2.38;;;13.10;99.90;;;;;;4976210;28;20018;-78
2022/09/13 10:22:10;;;;;;;3.63;1.25;;;13.20;99.90;;;;;;4976052;28;20106;-76
2022/09/13 10:24:38;;;;;;;5.72;3.00;;;13.20;99.90;;;;;;4974536;28;20404;-73
2022/09/13 10:27:18;;;;;;;14.07;4.60;;;13.30;99.90;;;;;;4975803;28;20061;-74
2022/09/13 10:29:49;;;;;;;9.52;3.45;;;13.40;99.90;;;;;;4975742;28;20113;-78
2022/09/13 10:32:18;;;;;;;22.60;4.53;;;13.40;99.90;;;;;;4975307;28;20562;-77
2022/09/13 10:34:50;;;;;;;21.38;4.43;;;13.50;99.90;;;;;;4975811;28;20035;-77
2022/09/13 10:37:32;;;;;;;13.70;4.22;;;13.60;99.90;;;;;;4958114;28;20384;-75
2022/09/13 10:40:06;;;;;;;7.70;2.80;;;13.60;99.90;;;;;;4974362;28;20034;-76
2022/09/13 10:42:34;;;;;;;6.10;2.03;;;13.70;99.90;;;;;;4974075;28;20026;-75
2022/09/13 10:45:20;;;;;;;8.85;3.28;;;13.70;99.90;;;;;;4974485;28;20085;-80
2022/09/13 10:47:52;;;;;;;3.78;1.13;;;13.70;99.90;;;;;;4974358;28;20027;-77
2022/09/13 10:50:25;;;;;;;3.35;0.90;;;13.70;99.90;;;;;;4975296;28;20037;-77
2022/09/13 10:52:58;;;;;;;26.77;3.40;;;13.70;99.90;;;;;;4975482;28;20081;-76
2022/09/13 10:55:42;;;;;;;9.45;2.40;;;13.80;99.90;;;;;;4974002;28;20082;-75
2022/09/13 10:58:10;;;;;;;5.47;2.58;;;13.70;99.90;;;;;;4972442;28;20483;-79
2022/09/13 11:00:54;;;;;;;5.90;1.65;;;13.80;99.90;;;;;;4975273;28;20027;-76
2022/09/13 11:03:47;;;;;;;7.78;1.35;;;13.80;99.90;;;;;;4974056;28;20049;-77
2022/09/13 11:06:42;;;;;;;3.00;0.80;;;13.80;99.90;;;;;;4975032;28;20091;-74
2022/09/13 11:09:16;;;;;;;3.30;1.50;;;13.80;99.90;;;;;;4974157;28;20030;-74
2022/09/13 11:11:49;;;;;;;5.22;1.55;;;13.80;99.90;;;;;;4975254;28;20059;-74
2022/09/13 11:14:22;;;;;;;4.68;1.00;;;13.80;99.90;;;;;;4975349;28;20023;-74
2022/09/13 11:16:59;;;;;;;4.93;1.63;;;13.80;99.90;;;;;;4973770;28;20439;-74
2022/09/13 11:19:48;;;;;;;5.93;1.77;;;13.80;99.90;;;;;;4973690;28;20031;-74
2022/09/13 11:22:30;;;;;;;5.30;1.00;;;13.80;99.90;;;;;;4975266;28;20505;-75
2022/09/13 11:25:22;;;;;;;6.40;1.17;;;13.80;99.90;;;;;;4975650;28;20027;-77
2022/09/13 11:27:52;;;;;;;5.80;1.30;;;13.80;99.90;;;;;;4960046;28;20050;-76
2022/09/13 11:30:25;;;;;;;3.58;1.20;;;13.70;99.90;;;;;;4974942;28;20395;-76
2022/09/13 11:33:16;;;;;;;6.63;2.03;;;13.70;99.90;;;;;;4972890;28;20641;-76
2022/09/13 11:36:19;;;;;;;5.50;1.10;;;13.70;99.90;;;;;;4973837;28;20479;-74
2022/09/13 11:39:19;;;;;;;4.28;1.30;;;13.50;99.90;;;;;;4973425;28;20090;-74
2022/09/13 11:41:58;;;;;;;4.03;1.20;;;13.40;99.90;;;;;;4958325;28;20407;-75
2022/09/13 11:44:34;;;;;;;9.38;1.73;;;13.30;99.90;;;;;;4974830;28;20023;-75
2022/09/13 11:47:13;;;;;;;5.90;1.33;;;13.30;99.90;;;;;;4973223;28;20340;-74
2022/09/13 11:49:58;;;;;;;5.18;0.90;;;13.20;99.90;;;;;;4974405;28;20483;-71
2022/09/13 11:52:38;;;;;;;3.88;0.75;;;13.30;99.90;;;;;;4974307;28;20400;-71
2022/09/13 11:56:02;;;;;;;4.55;1.05;;;13.30;99.90;;;;;;4974489;28;20023;-71
2022/09/13 11:58:47;;;;;;;6.88;1.15;;;13.30;99.90;;;;;;4952882;29;20095;-71
2022/09/13 12:01:21;;;;;;;7.78;1.95;;;13.20;99.90;;;;;;4953089;29;20069;-72
2022/09/13 12:04:01;;;;;;;12.23;2.38;;;13.10;99.90;;;;;;4959596;28;20038;-72
2022/09/13 12:06:42;;;;;;;8.52;1.70;;;13.00;99.90;;;;;;4974599;28;20102;-71
2022/09/13 12:09:18;;;;;;;5.70;1.92;;;12.90;99.90;;;;;;4972800;28;20023;-72
2022/09/13 12:12:01;;;;;;;7.28;1.80;;;12.80;99.90;;;;;;4974353;28;20438;-71
2022/09/13 12:14:38;;;;;;;6.40;1.75;;;12.80;99.90;;;;;;4974529;28;20074;-71
2022/09/13 12:17:25;;;;;;;4.68;1.60;;;12.80;99.90;;;;;;4974191;28;20027;-73
2022/09/13 12:19:57;;;;;;;6.05;2.15;;;12.80;99.90;;;;;;4975387;28;20030;-70
2022/09/13 12:22:29;;;;;;;7.53;1.80;;;12.80;99.90;;;;;;4976821;28;20114;-74
2022/09/13 12:25:02;;;;;;;6.25;2.08;;;12.70;99.90;;;;;;4978263;28;20055;-72
2022/09/13 12:27:41;;;;;;;5.63;2.10;;;12.70;99.90;;;;;;4978766;28;20086;-78
2022/09/13 12:30:16;;;;;;;5.25;2.00;;;12.60;99.90;;;;;;4979279;28;20031;-77
2022/09/13 12:32:46;;;;;;;6.65;2.28;;;12.50;99.90;;;;;;4978184;28;20503;-77
2022/09/13 12:35:13;;;;;;;6.78;3.00;;;12.40;99.90;;;;;;4978153;28;20431;-77
2022/09/13 12:38:04;;;;;;;6.60;3.65;;;12.40;99.90;;;;;;4978285;28;20034;-77
2022/09/13 12:40:50;;;;;;;6.03;2.22;;;12.30;99.90;;;;;;4978041;28;20431;-76
2022/09/13 12:43:36;;;;;;;5.07;1.40;;;12.20;99.90;;;;;;4976865;28;20109;-76
2022/09/13 12:46:25;;;;;;;5.53;1.70;;;12.20;99.90;;;;;;4977930;28;20110;-77
2022/09/13 12:49:20;;;;;;;9.25;1.63;;;12.10;99.90;;;;;;4978363;28;20030;-77
2022/09/13 12:52:02;;;;;;;5.55;1.60;;;12.00;99.90;;;;;;4978267;28;20023;-77
2022/09/13 12:54:38;;;;;;;6.60;1.65;;;12.00;99.90;;;;;;4977993;28;20062;-75
2022/09/13 12:57:11;;;;;;;3.95;1.15;;;12.00;99.90;;;;;;4977684;28;20030;-77
2022/09/13 13:00:11;;;;;;;8.43;1.60;;;11.90;99.90;;;;;;4976206;28;20394;-76
2022/09/13 13:02:45;;;;;;;6.38;1.50;;;11.90;99.90;;;;;;4977723;28;20106;-76
2022/09/13 13:05:26;;;;;;;6.75;1.33;;;11.80;99.90;;;;;;4976552;28;20018;-75
2022/09/13 13:08:15;;;;;;;5.50;1.30;;;11.80;99.90;;;;;;4976858;28;20026;-77
2022/09/13 13:10:43;;;;;;;5.95;1.70;;;11.80;99.90;;;;;;4976131;28;20482;-76
2022/09/13 13:13:31;;;;;;;5.72;1.20;;;11.80;99.90;;;;;;4976876;28;20576;-75
2022/09/13 13:16:03;;;;;;;5.88;1.38;;;11.70;99.90;;;;;;4976981;28;20083;-77
2022/09/13 13:18:36;;;;;;;7.18;1.40;;;11.70;99.90;;;;;;4976047;28;20125;-77
2022/09/13 13:21:21;;;;;;;5.18;1.38;;;11.70;99.90;;;;;;4977543;28;20419;-76
2022/09/13 13:24:08;;;;;;;3.95;1.55;;;11.70;99.90;;;;;;4977270;28;20495;-76
2022/09/13 13:26:47;;;;;;;7.00;2.35;;;11.70;99.90;;;;;;4977075;28;20076;-77
2022/09/13 13:29:18;;;;;;;8.60;2.58;;;11.70;99.90;;;;;;4975757;28;20037;-76
2022/09/13 13:32:09;;;;;;;5.75;1.63;;;11.80;99.90;;;;;;4975087;28;20042;-76
2022/09/13 13:34:38;;;;;;;;;;;11.80;99.90;;;;;;4976834;28;20027;-77
2022/09/13 13:37:28;;;;;;;12.52;1.80;;;11.80;99.90;;;;;;4976764;28;19906;-76
2022/09/13 13:40:22;;;;;;;7.03;1.55;;;11.80;99.90;;;;;;4976982;28;20081;-77
2022/09/13 13:42:49;;;;;;;4.22;1.25;;;11.80;99.90;;;;;;4976747;28;20074;-77